This is the latest recevied weather packets stored in our database for station/object KK7AZD-13. If no packets are shown the sender has not sent any weather packets the latest 10 day(s).
| Time | Temp. | Humidity | Pressure | Rain* | Wind** | Luminosity | Snow |
|---|---|---|---|---|---|---|---|
| 1777446671 | 5.56° C | 69% | 1020.4 hPa | 0 mm | - | 0 W/m² | - |
| 1777445772 | 5.56° C | 68% | 1020.5 hPa | 0 mm | - | 0 W/m² | - |
| 1777444866 | 6.11° C | 66% | 1020.5 hPa | 0 mm | - | 0 W/m² | - |
| 1777443967 | 5.56° C | 68% | 1020.4 hPa | 0 mm | - | 0 W/m² | - |
| 1777443066 | 5° C | 72% | 1020.4 hPa | 0 mm | - | 0 W/m² | - |
| 1777442167 | 5° C | 71% | 1020.1 hPa | 0 mm | - | 0 W/m² | - |
| 1777441266 | 6.11° C | 69% | 1020.3 hPa | 0 mm | - | 0 W/m² | - |
| 1777440365 | 6.11° C | 68% | 1019.9 hPa | 0 mm | - | 0 W/m² | - |
| 1777439464 | 7.22° C | 66% | 1020 hPa | 0 mm | - | 0 W/m² | - |
| 1777438559 | 8.89° C | 61% | 1019.9 hPa | 0 mm | - | 0 W/m² | - |
| 1777437660 | 9.44° C | 60% | 1019.9 hPa | 0 mm | - | 0 W/m² | - |
| 1777436754 | 10° C | 58% | 1019.8 hPa | 0 mm | - | 0 W/m² | - |
| 1777435850 | 10.56° C | 60% | 1019.7 hPa | 0 mm | - | 0 W/m² | - |
| 1777434947 | 10.56° C | 58% | 1019.7 hPa | 0 mm | - | 0 W/m² | - |
| 1777434042 | 11.11° C | 56% | 1019.3 hPa | 0 mm | - | 0 W/m² | - |
| 1777433141 | 11.11° C | 55% | 1019 hPa | 0 mm | - | 0 W/m² | - |
| 1777432241 | 11.67° C | 55% | 1018.7 hPa | 0 mm | - | 0 W/m² | - |
| 1777431338 | 12.22° C | 54% | 1018.6 hPa | 0 mm | - | 8 W/m² | - |
| 1777430438 | 12.78° C | 50% | 1018.7 hPa | 0 mm | - | 21 W/m² | - |
| 1777429537 | 13.33° C | 48% | 1018.2 hPa | 0 mm | - | 38 W/m² | - |
| 1777428637 | 13.89° C | 42% | 1018.4 hPa | 0 mm | - | 55 W/m² | - |
| 1777427736 | 14.44° C | 36% | 1018.2 hPa | 0 mm | - | 112 W/m² | - |
| 1777426833 | 14.44° C | 37% | 1018.4 hPa | 0 mm | - | 154 W/m² | - |
| 1777425933 | 14.44° C | 37% | 1018.4 hPa | 0 mm | - | 123 W/m² | - |
| 1777425033 | 15° C | 36% | 1018.4 hPa | 0 mm | - | 275 W/m² | - |
* Rain latest hour (hover to see other rain measurements)
** Current wind speed in m/s (hover to see current wind gust speed)